sensor_id;sensor_type;location;lat;lon;timestamp;pressure;altitude;pressure_sealevel;temperature;humidity
50672;BME280;46021;55.882;37.654;2023-03-17T00:00:50;99747.34;;;0.34;79.20
50672;BME280;46021;55.882;37.654;2023-03-17T00:03:20;99746.44;;;0.31;78.58
50672;BME280;46021;55.882;37.654;2023-03-17T00:05:49;99752.41;;;0.27;78.73
50672;BME280;46021;55.882;37.654;2023-03-17T00:08:19;99747.19;;;0.22;78.19
50672;BME280;46021;55.882;37.654;2023-03-17T00:10:49;99750.63;;;0.24;77.86
50672;BME280;46021;55.882;37.654;2023-03-17T00:13:17;99752.38;;;0.28;77.87
50672;BME280;46021;55.882;37.654;2023-03-17T00:15:52;99762.53;;;0.17;77.96
50672;BME280;46021;55.882;37.654;2023-03-17T00:18:20;99770.25;;;0.21;78.06
50672;BME280;46021;55.882;37.654;2023-03-17T00:20:48;99759.09;;;0.17;77.84
50672;BME280;46021;55.882;37.654;2023-03-17T00:23:17;99767.72;;;0.22;78.92
50672;BME280;46021;55.882;37.654;2023-03-17T00:25:45;99764.25;;;0.20;79.29
50672;BME280;46021;55.882;37.654;2023-03-17T00:28:17;99771.09;;;0.18;78.91
50672;BME280;46021;55.882;37.654;2023-03-17T00:30:47;99770.19;;;0.14;79.23
50672;BME280;46021;55.882;37.654;2023-03-17T00:33:15;99774.41;;;0.11;78.56
50672;BME280;46021;55.882;37.654;2023-03-17T00:35:42;99781.28;;;0.12;77.63
50672;BME280;46021;55.882;37.654;2023-03-17T00:38:13;99775.25;;;0.08;78.10
50672;BME280;46021;55.882;37.654;2023-03-17T00:40:42;99775.28;;;0.10;77.38
50672;BME280;46021;55.882;37.654;2023-03-17T00:43:10;99776.94;;;0.06;78.85
50672;BME280;46021;55.882;37.654;2023-03-17T00:45:40;99779.50;;;0.06;78.80
50672;BME280;46021;55.882;37.654;2023-03-17T00:48:12;99770.91;;;0.03;77.91
50672;BME280;46021;55.882;37.654;2023-03-17T00:50:42;99782.84;;;0.01;78.38
50672;BME280;46021;55.882;37.654;2023-03-17T00:53:11;99784.59;;;0.05;78.00
50672;BME280;46021;55.882;37.654;2023-03-17T00:55:40;99782.84;;;0.04;77.91
50672;BME280;46021;55.882;37.654;2023-03-17T00:58:14;99787.22;;;0.08;77.52
50672;BME280;46021;55.882;37.654;2023-03-17T01:00:45;99781.88;;;-0.06;78.20
50672;BME280;46021;55.882;37.654;2023-03-17T01:03:12;99787.91;;;-0.06;77.68
50672;BME280;46021;55.882;37.654;2023-03-17T01:05:39;99786.16;;;-0.07;77.89
50672;BME280;46021;55.882;37.654;2023-03-17T01:08:08;99793.03;;;-0.06;77.28
50672;BME280;46021;55.882;37.654;2023-03-17T01:10:35;99799.81;;;-0.08;77.99
50672;BME280;46021;55.882;37.654;2023-03-17T01:13:03;99800.69;;;-0.07;77.18
50672;BME280;46021;55.882;37.654;2023-03-17T01:15:32;99803.09;;;-0.18;78.07
50672;BME280;46021;55.882;37.654;2023-03-17T01:18:01;99815.09;;;-0.14;77.64
50672;BME280;46021;55.882;37.654;2023-03-17T01:20:30;99806.47;;;-0.22;77.53
50672;BME280;46021;55.882;37.654;2023-03-17T01:22:57;99817.63;;;-0.17;77.38
50672;BME280;46021;55.882;37.654;2023-03-17T01:25:25;99815.06;;;-0.18;78.18
50672;BME280;46021;55.882;37.654;2023-03-17T01:27:54;99817.59;;;-0.20;78.38
50672;BME280;46021;55.882;37.654;2023-03-17T01:30:25;99821.84;;;-0.19;77.01
50672;BME280;46021;55.882;37.654;2023-03-17T01:32:54;99830.34;;;-0.23;76.98
50672;BME280;46021;55.882;37.654;2023-03-17T01:35:24;99835.47;;;-0.23;78.32
50672;BME280;46021;55.882;37.654;2023-03-17T01:37:52;99832.78;;;-0.31;77.87
50672;BME280;46021;55.882;37.654;2023-03-17T01:40:21;99836.25;;;-0.29;77.57
50672;BME280;46021;55.882;37.654;2023-03-17T01:42:51;99838.00;;;-0.25;78.54
50672;BME280;46021;55.882;37.654;2023-03-17T01:48:24;99856.88;;;-0.20;78.31
50672;BME280;46021;55.882;37.654;2023-03-17T01:50:55;99867.09;;;-0.23;77.67
50672;BME280;46021;55.882;37.654;2023-03-17T01:53:23;99867.13;;;-0.20;77.14
50672;BME280;46021;55.882;37.654;2023-03-17T01:55:51;99869.66;;;-0.21;77.98
50672;BME280;46021;55.882;37.654;2023-03-17T01:58:20;99872.22;;;-0.21;76.97
50672;BME280;46021;55.882;37.654;2023-03-17T02:00:49;99874.00;;;-0.17;76.83
50672;BME280;46021;55.882;37.654;2023-03-17T02:03:17;99879.91;;;-0.21;77.69
50672;BME280;46021;55.882;37.654;2023-03-17T02:05:45;99878.97;;;-0.28;76.64
50672;BME280;46021;55.882;37.654;2023-03-17T02:08:15;99882.28;;;-0.33;77.13
50672;BME280;46021;55.882;37.654;2023-03-17T02:10:43;99893.47;;;-0.28;78.04
50672;BME280;46021;55.882;37.654;2023-03-17T02:13:12;99890.13;;;-0.24;77.53
50672;BME280;46021;55.882;37.654;2023-03-17T02:15:43;99890.94;;;-0.25;76.70
50672;BME280;46021;55.882;37.654;2023-03-17T02:18:11;99899.41;;;-0.29;77.48
50672;BME280;46021;55.882;37.654;2023-03-17T02:21:29;99888.28;;;-0.31;77.80
50672;BME280;46021;55.882;37.654;2023-03-17T02:23:58;99902.78;;;-0.33;76.78
50672;BME280;46021;55.882;37.654;2023-03-17T02:26:27;99903.59;;;-0.34;76.29
50672;BME280;46021;55.882;37.654;2023-03-17T02:28:57;99900.16;;;-0.36;76.31
50672;BME280;46021;55.882;37.654;2023-03-17T02:31:24;99904.50;;;-0.34;76.50
50672;BME280;46021;55.882;37.654;2023-03-17T02:33:52;99899.38;;;-0.31;76.21
50672;BME280;46021;55.882;37.654;2023-03-17T02:36:20;99899.41;;;-0.29;76.99
50672;BME280;46021;55.882;37.654;2023-03-17T02:38:49;99901.13;;;-0.30;75.70
50672;BME280;46021;55.882;37.654;2023-03-17T02:41:17;99896.75;;;-0.37;75.66
50672;BME280;46021;55.882;37.654;2023-03-17T02:43:44;99895.78;;;-0.44;75.77
50672;BME280;46021;55.882;37.654;2023-03-17T02:46:11;99901.91;;;-0.35;75.49
50672;BME280;46021;55.882;37.654;2023-03-17T02:48:38;99899.31;;;-0.37;75.83
50672;BME280;46021;55.882;37.654;2023-03-17T02:51:06;99903.50;;;-0.41;75.34
50672;BME280;46021;55.882;37.654;2023-03-17T02:53:33;99910.31;;;-0.43;76.42
50672;BME280;46021;55.882;37.654;2023-03-17T02:56:02;99928.16;;;-0.46;75.00
50672;BME280;46021;55.882;37.654;2023-03-17T02:58:30;99934.16;;;-0.47;75.12
50672;BME280;46021;55.882;37.654;2023-03-17T03:00:57;99935.84;;;-0.46;75.34
50672;BME280;46021;55.882;37.654;2023-03-17T03:03:24;99939.28;;;-0.47;74.99
50672;BME280;46021;55.882;37.654;2023-03-17T03:05:52;99943.53;;;-0.47;74.76
50672;BME280;46021;55.882;37.654;2023-03-17T03:08:19;99939.38;;;-0.41;74.60
50672;BME280;46021;55.882;37.654;2023-03-17T03:10:46;99946.19;;;-0.41;74.29
50672;BME280;46021;55.882;37.654;2023-03-17T03:13:15;99949.47;;;-0.48;74.34
50672;BME280;46021;55.882;37.654;2023-03-17T03:15:42;99958.03;;;-0.48;73.96
50672;BME280;46021;55.882;37.654;2023-03-17T03:18:10;99967.41;;;-0.48;74.51
50672;BME280;46021;55.882;37.654;2023-03-17T03:20:40;99975.16;;;-0.44;74.64
50672;BME280;46021;55.882;37.654;2023-03-17T03:23:08;99974.28;;;-0.46;75.08
50672;BME280;46021;55.882;37.654;2023-03-17T03:25:36;99980.16;;;-0.53;73.28
50672;BME280;46021;55.882;37.654;2023-03-17T03:28:03;99979.31;;;-0.50;73.84
50672;BME280;46021;55.882;37.654;2023-03-17T03:30:32;99982.78;;;-0.48;73.89
50672;BME280;46021;55.882;37.654;2023-03-17T03:33:00;99981.06;;;-0.48;73.51
50672;BME280;46021;55.882;37.654;2023-03-17T03:35:28;99982.84;;;-0.45;72.70
50672;BME280;46021;55.882;37.654;2023-03-17T03:37:55;99975.88;;;-0.52;73.86
50672;BME280;46021;55.882;37.654;2023-03-17T03:40:22;99992.81;;;-0.59;73.21
50672;BME280;46021;55.882;37.654;2023-03-17T03:42:49;99990.28;;;-0.57;73.32
50672;BME280;46021;55.882;37.654;2023-03-17T03:45:16;99992.72;;;-0.65;73.00
50672;BME280;46021;55.882;37.654;2023-03-17T03:47:45;100008.22;;;-0.57;72.32
50672;BME280;46021;55.882;37.654;2023-03-17T03:50:12;99999.59;;;-0.61;73.29
50672;BME280;46021;55.882;37.654;2023-03-17T03:52:39;100002.28;;;-0.55;72.38
50672;BME280;46021;55.882;37.654;2023-03-17T03:55:07;100007.34;;;-0.58;71.61
50672;BME280;46021;55.882;37.654;2023-03-17T03:57:34;100020.19;;;-0.56;71.15
50672;BME280;46021;55.882;37.654;2023-03-17T04:00:01;100021.13;;;-0.53;72.37
50672;BME280;46021;55.882;37.654;2023-03-17T04:02:37;100023.69;;;-0.53;71.64
50672;BME280;46021;55.882;37.654;2023-03-17T04:05:07;100019.44;;;-0.49;70.82
50672;BME280;46021;55.882;37.654;2023-03-17T04:07:34;100011.00;;;-0.44;72.10
50672;BME280;46021;55.882;37.654;2023-03-17T04:10:02;100032.25;;;-0.49;71.58
50672;BME280;46021;55.882;37.654;2023-03-17T04:12:29;100036.63;;;-0.45;70.54
50672;BME280;46021;55.882;37.654;2023-03-17T04:14:57;100040.09;;;-0.42;70.75
50672;BME280;46021;55.882;37.654;2023-03-17T04:17:24;100048.53;;;-0.46;70.04
50672;BME280;46021;55.882;37.654;2023-03-17T04:19:52;100039.22;;;-0.42;71.03
50672;BME280;46021;55.882;37.654;2023-03-17T04:22:20;100055.47;;;-0.42;70.69
50672;BME280;46021;55.882;37.654;2023-03-17T04:24:47;100053.84;;;-0.36;70.23
50672;BME280;46021;55.882;37.654;2023-03-17T04:27:14;100069.28;;;-0.33;71.75
50672;BME280;46021;55.882;37.654;2023-03-17T04:29:42;100064.94;;;-0.36;69.74
50672;BME280;46021;55.882;37.654;2023-03-17T04:32:10;100067.50;;;-0.37;69.94
50672;BME280;46021;55.882;37.654;2023-03-17T04:34:37;100072.53;;;-0.41;68.30
50672;BME280;46021;55.882;37.654;2023-03-17T04:37:05;100064.94;;;-0.37;68.66
50672;BME280;46021;55.882;37.654;2023-03-17T04:39:34;100062.47;;;-0.31;69.69
50672;BME280;46021;55.882;37.654;2023-03-17T04:42:01;100081.41;;;-0.23;69.50
50672;BME280;46021;55.882;37.654;2023-03-17T04:44:29;100088.25;;;-0.22;70.24
50672;BME280;46021;55.882;37.654;2023-03-17T04:46:56;100088.19;;;-0.25;69.39
50672;BME280;46021;55.882;37.654;2023-03-17T04:49:24;100100.47;;;-0.09;69.25
50672;BME280;46021;55.882;37.654;2023-03-17T04:51:51;100098.72;;;-0.10;69.07
50672;BME280;46021;55.882;37.654;2023-03-17T04:54:19;100106.63;;;0.03;69.31
50672;BME280;46021;55.882;37.654;2023-03-17T04:56:47;100124.50;;;-0.01;67.32
50672;BME280;46021;55.882;37.654;2023-03-17T04:59:14;100122.91;;;0.05;68.84
50672;BME280;46021;55.882;37.654;2023-03-17T05:01:42;100124.59;;;0.06;66.86
50672;BME280;46021;55.882;37.654;2023-03-17T05:04:09;100129.97;;;0.18;67.24
50672;BME280;46021;55.882;37.654;2023-03-17T05:06:37;100137.03;;;0.31;67.95
50672;BME280;46021;55.882;37.654;2023-03-17T05:09:05;100138.88;;;0.38;67.97
50672;BME280;46021;55.882;37.654;2023-03-17T05:11:33;100139.06;;;0.51;67.89
50672;BME280;46021;55.882;37.654;2023-03-17T05:14:02;100141.66;;;0.52;66.92
50672;BME280;46021;55.882;37.654;2023-03-17T05:16:29;100156.28;;;0.58;67.18
50672;BME280;46021;55.882;37.654;2023-03-17T05:18:57;100159.88;;;0.69;67.67
50672;BME280;46021;55.882;37.654;2023-03-17T05:21:24;100157.41;;;0.74;65.14
50672;BME280;46021;55.882;37.654;2023-03-17T05:23:51;100164.34;;;0.81;65.93
50672;BME280;46021;55.882;37.654;2023-03-17T05:26:18;100167.00;;;0.89;66.71
50672;BME280;46021;55.882;37.654;2023-03-17T05:28:55;100170.38;;;0.85;65.69
50672;BME280;46021;55.882;37.654;2023-03-17T05:31:23;100170.50;;;0.91;65.57
50672;BME280;46021;55.882;37.654;2023-03-17T05:33:50;100172.91;;;0.83;64.19
50672;BME280;46021;55.882;37.654;2023-03-17T05:36:18;100174.53;;;0.76;63.08
50672;BME280;46021;55.882;37.654;2023-03-17T05:38:45;100188.28;;;0.80;63.98
50672;BME280;46021;55.882;37.654;2023-03-17T05:41:12;100191.78;;;0.84;64.02
50672;BME280;46021;55.882;37.654;2023-03-17T05:43:40;100189.31;;;0.91;64.85
50672;BME280;46021;55.882;37.654;2023-03-17T05:46:07;100193.66;;;0.95;63.87
50672;BME280;46021;55.882;37.654;2023-03-17T05:48:36;100206.63;;;1.05;63.54
50672;BME280;46021;55.882;37.654;2023-03-17T05:51:04;100207.50;;;1.05;63.17
50672;BME280;46021;55.882;37.654;2023-03-17T05:53:31;100211.78;;;1.06;63.39
50672;BME280;46021;55.882;37.654;2023-03-17T05:55:58;100216.16;;;1.12;64.08
50672;BME280;46021;55.882;37.654;2023-03-17T05:58:25;100220.53;;;1.17;63.20
50672;BME280;46021;55.882;37.654;2023-03-17T06:00:52;100223.06;;;1.16;63.48
50672;BME280;46021;55.882;37.654;2023-03-17T06:03:19;100229.19;;;1.26;64.03
50672;BME280;46021;55.882;37.654;2023-03-17T06:05:49;100220.59;;;1.24;63.12
50672;BME280;46021;55.882;37.654;2023-03-17T06:08:16;100228.38;;;1.27;62.14
50672;BME280;46021;55.882;37.654;2023-03-17T06:10:43;100226.69;;;1.30;63.18
50672;BME280;46021;55.882;37.654;2023-03-17T06:13:11;100225.09;;;1.39;61.90
50672;BME280;46021;55.882;37.654;2023-03-17T06:15:38;100225.69;;;1.21;61.30
50672;BME280;46021;55.882;37.654;2023-03-17T06:18:06;100234.25;;;1.20;61.62
50672;BME280;46021;55.882;37.654;2023-03-17T06:20:34;100229.75;;;1.05;60.59
50672;BME280;46021;55.882;37.654;2023-03-17T06:23:03;100239.03;;;0.98;59.77
50672;BME280;46021;55.882;37.654;2023-03-17T06:25:32;100246.66;;;0.93;61.25
50672;BME280;46021;55.882;37.654;2023-03-17T06:27:59;100242.38;;;0.91;60.80
50672;BME280;46021;55.882;37.654;2023-03-17T06:30:28;100254.56;;;1.04;60.58
50672;BME280;46021;55.882;37.654;2023-03-17T06:32:55;100245.00;;;0.95;59.68
50672;BME280;46021;55.882;37.654;2023-03-17T06:35:22;100252.97;;;1.12;60.19
50672;BME280;46021;55.882;37.654;2023-03-17T06:37:49;100251.59;;;1.36;59.63
50672;BME280;46021;55.882;37.654;2023-03-17T06:40:18;100259.56;;;1.54;60.44
50672;BME280;46021;55.882;37.654;2023-03-17T06:42:45;100244.97;;;1.50;59.33
50672;BME280;46021;55.882;37.654;2023-03-17T06:45:12;100248.63;;;1.68;58.45
50672;BME280;46021;55.882;37.654;2023-03-17T06:47:40;100247.03;;;1.76;58.84
50672;BME280;46021;55.882;37.654;2023-03-17T06:50:08;100250.47;;;1.78;58.07
50672;BME280;46021;55.882;37.654;2023-03-17T06:52:36;100238.38;;;1.71;57.88
50672;BME280;46021;55.882;37.654;2023-03-17T06:55:03;100246.09;;;1.71;57.62
50672;BME280;46021;55.882;37.654;2023-03-17T06:57:32;100247.19;;;1.90;57.90
50672;BME280;46021;55.882;37.654;2023-03-17T06:59:59;100243.91;;;2.02;57.45
50672;BME280;46021;55.882;37.654;2023-03-17T07:02:27;100240.59;;;2.12;56.03
50672;BME280;46021;55.882;37.654;2023-03-17T07:04:54;100235.47;;;2.15;56.50
50672;BME280;46021;55.882;37.654;2023-03-17T07:07:22;100236.38;;;2.19;56.92
50672;BME280;46021;55.882;37.654;2023-03-17T07:09:49;100245.16;;;2.34;56.71
50672;BME280;46021;55.882;37.654;2023-03-17T07:12:17;100257.28;;;2.46;56.44
50672;BME280;46021;55.882;37.654;2023-03-17T07:14:46;100252.94;;;2.45;55.77
50672;BME280;46021;55.882;37.654;2023-03-17T07:17:14;100249.47;;;2.42;55.02
50672;BME280;46021;55.882;37.654;2023-03-17T07:19:41;100252.09;;;2.45;55.72
50672;BME280;46021;55.882;37.654;2023-03-17T07:22:08;100252.19;;;2.52;55.08
50672;BME280;46021;55.882;37.654;2023-03-17T07:24:37;100256.44;;;2.49;53.84
50672;BME280;46021;55.882;37.654;2023-03-17T07:27:04;100257.78;;;2.16;51.70
50672;BME280;46021;55.882;37.654;2023-03-17T07:29:31;100280.09;;;2.19;53.30
50672;BME280;46021;55.882;37.654;2023-03-17T07:32:00;100293.06;;;2.28;53.21
50672;BME280;46021;55.882;37.654;2023-03-17T07:34:30;100293.13;;;2.34;53.02
50672;BME280;46021;55.882;37.654;2023-03-17T07:36:57;100289.56;;;2.20;51.60
50672;BME280;46021;55.882;37.654;2023-03-17T07:39:24;100302.53;;;2.30;52.85
50672;BME280;46021;55.882;37.654;2023-03-17T07:41:52;100304.50;;;2.53;53.04
50672;BME280;46021;55.882;37.654;2023-03-17T07:44:19;100301.25;;;2.69;52.48
50672;BME280;46021;55.882;37.654;2023-03-17T07:46:47;100308.06;;;2.64;50.49
50672;BME280;46021;55.882;37.654;2023-03-17T07:49:16;100309.78;;;2.65;51.22
50672;BME280;46021;55.882;37.654;2023-03-17T07:51:43;100303.84;;;2.71;51.39
50672;BME280;46021;55.882;37.654;2023-03-17T07:54:11;100296.06;;;2.66;51.38
50672;BME280;46021;55.882;37.654;2023-03-17T07:56:39;100303.16;;;2.89;50.75
50672;BME280;46021;55.882;37.654;2023-03-17T07:59:06;100309.97;;;2.84;49.88
50672;BME280;46021;55.882;37.654;2023-03-17T08:01:34;100311.84;;;3.02;50.91
50672;BME280;46021;55.882;37.654;2023-03-17T08:04:01;100311.25;;;3.29;51.15
50672;BME280;46021;55.882;37.654;2023-03-17T08:06:30;100321.72;;;3.52;50.41
50672;BME280;46021;55.882;37.654;2023-03-17T08:08:57;100313.19;;;3.59;49.56
50672;BME280;46021;55.882;37.654;2023-03-17T08:11:25;100333.84;;;3.65;49.85
50672;BME280;46021;55.882;37.654;2023-03-17T08:13:52;100339.88;;;3.72;50.45
50672;BME280;46021;55.882;37.654;2023-03-17T08:16:19;100341.63;;;3.73;48.96
50672;BME280;46021;55.882;37.654;2023-03-17T08:18:46;100346.78;;;3.76;49.33
50672;BME280;46021;55.882;37.654;2023-03-17T08:21:13;100352.75;;;3.67;48.80
50672;BME280;46021;55.882;37.654;2023-03-17T08:23:43;100353.47;;;3.48;48.25
50672;BME280;46021;55.882;37.654;2023-03-17T08:26:15;100351.06;;;3.71;50.58
50672;BME280;46021;55.882;37.654;2023-03-17T08:28:47;100352.94;;;3.94;49.27
50672;BME280;46021;55.882;37.654;2023-03-17T08:31:17;100355.63;;;4.12;47.65
50672;BME280;46021;55.882;37.654;2023-03-17T08:33:45;100365.25;;;4.50;48.27
50672;BME280;46021;55.882;37.654;2023-03-17T08:36:14;100355.81;;;4.61;47.54
50672;BME280;46021;55.882;37.654;2023-03-17T08:38:46;100365.13;;;4.24;46.73
50672;BME280;46021;55.882;37.654;2023-03-17T08:41:16;100364.31;;;4.36;47.39
50672;BME280;46021;55.882;37.654;2023-03-17T08:43:45;100374.56;;;4.23;46.70
50672;BME280;46021;55.882;37.654;2023-03-17T08:46:15;100377.22;;;4.31;46.40
50672;BME280;46021;55.882;37.654;2023-03-17T08:48:44;100372.97;;;4.41;47.31
50672;BME280;46021;55.882;37.654;2023-03-17T08:51:14;100383.44;;;4.82;47.49
50672;BME280;46021;55.882;37.654;2023-03-17T08:53:41;100395.56;;;5.26;46.23
50672;BME280;46021;55.882;37.654;2023-03-17T08:56:10;100404.22;;;5.55;42.74
50672;BME280;46021;55.882;37.654;2023-03-17T08:58:38;100394.75;;;5.52;43.02
50672;BME280;46021;55.882;37.654;2023-03-17T09:01:07;100396.47;;;5.49;42.07
50672;BME280;46021;55.882;37.654;2023-03-17T09:03:35;100383.41;;;6.35;41.44
50672;BME280;46021;55.882;37.654;2023-03-17T09:06:04;100395.13;;;7.19;42.32
50672;BME280;46021;55.882;37.654;2023-03-17T09:08:32;100379.50;;;8.24;38.86
50672;BME280;46021;55.882;37.654;2023-03-17T09:10:59;100392.66;;;8.83;37.90
50672;BME280;46021;55.882;37.654;2023-03-17T09:13:31;100393.78;;;9.26;36.04
50672;BME280;46021;55.882;37.654;2023-03-17T09:15:58;100396.19;;;9.92;36.89
50672;BME280;46021;55.882;37.654;2023-03-17T09:18:26;100394.41;;;9.94;36.11
50672;BME280;46021;55.882;37.654;2023-03-17T09:20:53;100393.50;;;9.44;34.26
50672;BME280;46021;55.882;37.654;2023-03-17T09:23:20;100407.56;;;8.70;34.99
50672;BME280;46021;55.882;37.654;2023-03-17T09:25:47;100422.66;;;8.37;36.37
50672;BME280;46021;55.882;37.654;2023-03-17T09:28:15;100414.84;;;9.07;36.64
50672;BME280;46021;55.882;37.654;2023-03-17T09:30:45;100419.09;;;10.68;36.48
50672;BME280;46021;55.882;37.654;2023-03-17T09:33:12;100416.03;;;12.35;34.71
50672;BME280;46021;55.882;37.654;2023-03-17T09:35:40;100414.13;;;13.30;31.88
50672;BME280;46021;55.882;37.654;2023-03-17T09:38:08;100420.38;;;14.57;30.73
50672;BME280;46021;55.882;37.654;2023-03-17T09:40:41;100408.34;;;15.86;28.95
50672;BME280;46021;55.882;37.654;2023-03-17T09:43:17;100411.16;;;17.57;29.28
50672;BME280;46021;55.882;37.654;2023-03-17T09:45:50;100405.47;;;19.01;28.78
50672;BME280;46021;55.882;37.654;2023-03-17T09:48:27;100414.84;;;19.38;23.91
50672;BME280;46021;55.882;37.654;2023-03-17T09:51:00;100411.38;;;18.06;23.29
50672;BME280;46021;55.882;37.654;2023-03-17T09:53:33;100400.25;;;17.64;24.16
50672;BME280;46021;55.882;37.654;2023-03-17T09:56:05;100406.50;;;17.98;23.99
50672;BME280;46021;55.882;37.654;2023-03-17T09:58:35;100404.81;;;18.30;24.69
50672;BME280;46021;55.882;37.654;2023-03-17T10:01:07;100409.50;;;18.08;23.83
50672;BME280;46021;55.882;37.654;2023-03-17T10:03:35;100413.94;;;18.58;24.07
50672;BME280;46021;55.882;37.654;2023-03-17T10:06:26;100416.19;;;18.48;20.92
50672;BME280;46021;55.882;37.654;2023-03-17T10:09:03;100426.53;;;18.69;23.04
50672;BME280;46021;55.882;37.654;2023-03-17T10:11:38;100414.63;;;19.11;22.79
50672;BME280;46021;55.882;37.654;2023-03-17T10:14:30;100420.47;;;19.00;21.05
50672;BME280;46021;55.882;37.654;2023-03-17T10:17:06;100425.16;;;19.27;21.01
50672;BME280;46021;55.882;37.654;2023-03-17T10:19:40;100425.84;;;18.65;20.99
50672;BME280;46021;55.882;37.654;2023-03-17T10:22:14;100416.81;;;18.87;20.69
50672;BME280;46021;55.882;37.654;2023-03-17T10:24:48;100425.38;;;18.24;19.92
50672;BME280;46021;55.882;37.654;2023-03-17T10:27:17;100423.41;;;17.94;20.27
50672;BME280;46021;55.882;37.654;2023-03-17T10:29:44;100427.97;;;17.54;19.63
50672;BME280;46021;55.882;37.654;2023-03-17T10:32:13;100427.97;;;17.90;21.20
50672;BME280;46021;55.882;37.654;2023-03-17T10:34:41;100431.63;;;18.23;21.10
50672;BME280;46021;55.882;37.654;2023-03-17T10:37:13;100435.97;;;19.54;22.22
50672;BME280;46021;55.882;37.654;2023-03-17T10:39:44;100431.91;;;19.95;21.11
50672;BME280;46021;55.882;37.654;2023-03-17T10:42:18;100433.25;;;20.16;20.26
50672;BME280;46021;55.882;37.654;2023-03-17T10:44:50;100436.28;;;20.10;19.59
50672;BME280;46021;55.882;37.654;2023-03-17T10:47:30;100434.09;;;20.61;18.01
50672;BME280;46021;55.882;37.654;2023-03-17T10:50:02;100442.06;;;19.86;19.65
50672;BME280;46021;55.882;37.654;2023-03-17T10:52:32;100441.13;;;19.09;19.10
50672;BME280;46021;55.882;37.654;2023-03-17T10:55:04;100440.09;;;18.79;20.01
50672;BME280;46021;55.882;37.654;2023-03-17T10:57:32;100436.31;;;18.84;19.82
50672;BME280;46021;55.882;37.654;2023-03-17T11:00:10;100441.66;;;17.80;18.27
50672;BME280;46021;55.882;37.654;2023-03-17T11:02:45;100452.38;;;18.46;18.72
50672;BME280;46021;55.882;37.654;2023-03-17T11:05:20;100451.97;;;18.54;18.65
50672;BME280;46021;55.882;37.654;2023-03-17T11:07:48;100453.41;;;19.26;20.08
50672;BME280;46021;55.882;37.654;2023-03-17T11:12:46;100460.94;;;18.67;19.81
50672;BME280;46021;55.882;37.654;2023-03-17T11:15:16;100448.25;;;18.41;19.54
50672;BME280;46021;55.882;37.654;2023-03-17T11:17:52;100453.53;;;18.58;18.86
50672;BME280;46021;55.882;37.654;2023-03-17T11:20:34;100458.50;;;17.77;18.52
50672;BME280;46021;55.882;37.654;2023-03-17T11:23:05;100452.06;;;17.83;19.49
50672;BME280;46021;55.882;37.654;2023-03-17T11:25:39;100460.38;;;17.75;20.32
50672;BME280;46021;55.882;37.654;2023-03-17T11:28:15;100465.69;;;17.92;19.51
50672;BME280;46021;55.882;37.654;2023-03-17T11:30:56;100454.00;;;17.79;17.30
50672;BME280;46021;55.882;37.654;2023-03-17T11:33:35;100466.56;;;16.60;18.10
50672;BME280;46021;55.882;37.654;2023-03-17T11:36:12;100466.41;;;17.22;19.39
50672;BME280;46021;55.882;37.654;2023-03-17T11:38:52;100459.72;;;16.95;18.28
50672;BME280;46021;55.882;37.654;2023-03-17T11:41:45;100470.34;;;16.73;18.30
50672;BME280;46021;55.882;37.654;2023-03-17T11:44:32;100472.75;;;16.18;18.86
50672;BME280;46021;55.882;37.654;2023-03-17T11:47:07;100480.97;;;16.51;18.97
50672;BME280;46021;55.882;37.654;2023-03-17T11:49:43;100482.22;;;16.02;18.94
50672;BME280;46021;55.882;37.654;2023-03-17T11:52:19;100475.22;;;15.34;18.40
50672;BME280;46021;55.882;37.654;2023-03-17T11:54:54;100488.63;;;15.50;18.95
50672;BME280;46021;55.882;37.654;2023-03-17T11:57:27;100478.94;;;15.29;19.70
50672;BME280;46021;55.882;37.654;2023-03-17T12:00:03;100468.13;;;15.14;18.59
50672;BME280;46021;55.882;37.654;2023-03-17T12:02:40;100483.06;;;14.89;18.93
50672;BME280;46021;55.882;37.654;2023-03-17T12:05:13;100489.66;;;15.46;18.90
50672;BME280;46021;55.882;37.654;2023-03-17T12:07:48;100489.34;;;15.32;18.85
50672;BME280;46021;55.882;37.654;2023-03-17T12:10:22;100473.66;;;14.83;19.19
50672;BME280;46021;55.882;37.654;2023-03-17T12:12:53;100487.06;;;13.98;19.11
50672;BME280;46021;55.882;37.654;2023-03-17T12:15:27;100487.72;;;14.57;19.86
50672;BME280;46021;55.882;37.654;2023-03-17T12:17:59;100492.31;;;14.75;19.83
50672;BME280;46021;55.882;37.654;2023-03-17T12:20:34;100488.00;;;14.98;19.83
50672;BME280;46021;55.882;37.654;2023-03-17T12:23:12;100491.56;;;15.43;19.46
50672;BME280;46021;55.882;37.654;2023-03-17T12:25:49;100495.91;;;14.96;19.13
50672;BME280;46021;55.882;37.654;2023-03-17T12:28:20;100493.50;;;13.61;18.55
50672;BME280;46021;55.882;37.654;2023-03-17T12:30:52;100504.28;;;13.79;19.54
50672;BME280;46021;55.882;37.654;2023-03-17T12:33:26;100515.63;;;13.51;20.01
50672;BME280;46021;55.882;37.654;2023-03-17T12:35:56;100504.88;;;13.60;19.55
50672;BME280;46021;55.882;37.654;2023-03-17T12:38:28;100516.94;;;13.36;20.19
50672;BME280;46021;55.882;37.654;2023-03-17T12:41:17;100526.06;;;12.92;19.75
50672;BME280;46021;55.882;37.654;2023-03-17T12:43:58;100519.75;;;12.35;19.50
50672;BME280;46021;55.882;37.654;2023-03-17T12:46:46;100523.47;;;12.59;20.91
50672;BME280;46021;55.882;37.654;2023-03-17T12:49:26;100521.31;;;12.75;20.39
50672;BME280;46021;55.882;37.654;2023-03-17T12:52:23;100532.22;;;11.86;19.77
50672;BME280;46021;55.882;37.654;2023-03-17T12:54:52;100526.91;;;11.90;20.54
50672;BME280;46021;55.882;37.654;2023-03-17T12:57:21;100534.94;;;12.19;20.63
50672;BME280;46021;55.882;37.654;2023-03-17T12:59:56;100534.13;;;12.17;20.69
50672;BME280;46021;55.882;37.654;2023-03-17T13:02:32;100523.16;;;11.63;20.52
50672;BME280;46021;55.882;37.654;2023-03-17T13:05:05;100533.00;;;11.52;20.89
50672;BME280;46021;55.882;37.654;2023-03-17T13:07:37;100541.38;;;11.26;21.41